createdAt,value
2022-11-21T00:01:25.315Z,12.07
2022-11-21T00:03:53.028Z,12.73
2022-11-21T00:06:20.989Z,12.05
2022-11-21T00:08:48.659Z,11.93
2022-11-21T00:11:16.526Z,11.80
2022-11-21T00:13:44.212Z,11.90
2022-11-21T00:16:14.621Z,12.23
2022-11-21T00:18:44.121Z,12.07
2022-11-21T00:21:14.625Z,11.32
2022-11-21T00:23:43.081Z,11.73
2022-11-21T00:26:11.931Z,12.27
2022-11-21T00:28:39.672Z,12.00
2022-11-21T00:31:07.520Z,11.43
2022-11-21T00:33:36.797Z,11.52
2022-11-21T00:36:10.974Z,11.57
2022-11-21T00:38:38.464Z,11.70
2022-11-21T00:41:06.495Z,11.43
2022-11-21T00:43:34.214Z,12.00
2022-11-21T00:46:03.061Z,11.80
2022-11-21T00:48:32.123Z,12.18
2022-11-21T00:51:00.676Z,10.93
2022-11-21T00:53:29.732Z,10.98
2022-11-21T00:55:57.886Z,11.45
2022-11-21T00:58:25.961Z,11.48
2022-11-21T01:00:53.733Z,10.35
2022-11-21T01:03:21.491Z,11.57
2022-11-21T01:05:48.968Z,10.85
2022-11-21T01:08:16.439Z,9.80
2022-11-21T01:10:43.969Z,11.27
2022-11-21T01:13:11.388Z,10.32
2022-11-21T01:15:38.802Z,10.98
2022-11-21T01:18:06.246Z,10.40
2022-11-21T01:20:33.665Z,11.13
2022-11-21T01:23:01.241Z,10.85
2022-11-21T01:25:28.683Z,10.88
2022-11-21T01:27:56.155Z,10.20
2022-11-21T01:30:23.575Z,10.40
2022-11-21T01:32:51.063Z,10.02
2022-11-21T01:35:18.876Z,10.05
2022-11-21T01:37:49.649Z,9.82
2022-11-21T01:40:17.183Z,10.77
2022-11-21T01:42:50.324Z,10.07
2022-11-21T01:46:01.167Z,10.35
2022-11-21T01:48:44.973Z,10.13
2022-11-21T01:51:28.173Z,9.88
2022-11-21T01:54:02.720Z,10.48
2022-11-21T01:56:35.775Z,9.80
2022-11-21T01:59:04.931Z,10.27
2022-11-21T02:01:35.181Z,9.73
2022-11-21T02:04:04.344Z,9.32
2022-11-21T02:06:33.611Z,8.95
2022-11-21T02:09:01.540Z,9.35
2022-11-21T02:11:52.218Z,9.65
2022-11-21T02:14:19.742Z,9.77
2022-11-21T02:16:47.634Z,9.68
2022-11-21T02:19:49.585Z,9.75
2022-11-21T02:22:42.243Z,8.82
2022-11-21T02:25:15.497Z,9.43
2022-11-21T02:27:42.916Z,9.27
2022-11-21T02:30:11.315Z,9.27
2022-11-21T02:32:47.453Z,9.32
2022-11-21T02:35:17.709Z,9.80
2022-11-21T02:37:48.408Z,8.65
2022-11-21T02:40:27.895Z,9.05
2022-11-21T02:43:06.444Z,9.23
2022-11-21T02:45:39.342Z,8.10
2022-11-21T02:48:07.563Z,8.82
2022-11-21T02:50:37.500Z,9.05
2022-11-21T02:53:07.688Z,8.95
2022-11-21T02:55:35.186Z,9.48
2022-11-21T02:58:05.141Z,9.13
2022-11-21T03:00:37.142Z,8.90
2022-11-21T03:03:05.195Z,9.98
2022-11-21T03:05:33.057Z,8.77
2022-11-21T03:08:00.670Z,8.90
2022-11-21T03:10:28.175Z,9.07
2022-11-21T03:13:01.071Z,8.50
2022-11-21T03:15:31.791Z,8.77
2022-11-21T03:18:01.286Z,8.68
2022-11-21T03:20:34.391Z,8.43
2022-11-21T03:23:02.107Z,8.77
2022-11-21T03:25:29.647Z,8.57
2022-11-21T03:27:57.176Z,8.18
2022-11-21T03:30:26.125Z,8.65
2022-11-21T03:32:57.784Z,7.88
2022-11-21T03:35:26.359Z,8.43
2022-11-21T03:37:53.833Z,8.02
2022-11-21T03:40:21.287Z,8.30
2022-11-21T03:42:48.804Z,7.85
2022-11-21T03:45:16.322Z,8.95
2022-11-21T03:47:43.755Z,8.32
2022-11-21T03:50:12.086Z,7.78
2022-11-21T03:52:39.486Z,7.60
2022-11-21T03:55:07.197Z,7.45
2022-11-21T03:57:34.655Z,7.57
2022-11-21T04:00:02.104Z,7.90
2022-11-21T04:02:32.067Z,7.65
2022-11-21T04:04:59.553Z,8.18
2022-11-21T04:07:27.431Z,7.60
2022-11-21T04:09:54.892Z,7.50
2022-11-21T04:12:22.456Z,7.38
2022-11-21T04:14:49.860Z,7.05
2022-11-21T04:17:17.266Z,7.82
2022-11-21T04:19:44.653Z,7.40
2022-11-21T04:22:12.118Z,7.45
2022-11-21T04:24:39.509Z,7.00
2022-11-21T04:27:07.129Z,7.53
2022-11-21T04:29:34.616Z,7.25
2022-11-21T04:32:02.055Z,6.97
2022-11-21T04:34:29.839Z,6.72
2022-11-21T04:36:57.488Z,7.40
2022-11-21T04:39:25.023Z,6.93
2022-11-21T04:41:52.461Z,7.00
2022-11-21T04:44:19.908Z,6.47
2022-11-21T04:46:47.318Z,6.53
2022-11-21T04:49:14.984Z,6.40
2022-11-21T04:51:42.441Z,6.38
2022-11-21T04:54:11.378Z,6.25
2022-11-21T04:56:38.864Z,6.22
2022-11-21T04:59:06.277Z,6.57
2022-11-21T05:01:33.791Z,6.43
2022-11-21T05:04:01.240Z,6.30
2022-11-21T05:06:28.703Z,6.32
2022-11-21T05:08:56.211Z,6.03
2022-11-21T05:11:42.614Z,6.18
2022-11-21T05:14:09.996Z,6.60
2022-11-21T05:16:37.435Z,5.78
2022-11-21T05:19:04.839Z,6.40
2022-11-21T05:21:32.238Z,6.47
2022-11-21T05:23:59.800Z,5.97
2022-11-21T05:26:27.282Z,5.78
2022-11-21T05:28:54.851Z,5.57
2022-11-21T05:31:22.257Z,5.70
2022-11-21T05:33:49.915Z,5.47
2022-11-21T05:36:17.378Z,6.20
2022-11-21T05:38:44.839Z,5.75
2022-11-21T05:41:12.291Z,5.53
2022-11-21T05:43:45.905Z,5.63
2022-11-21T05:46:15.848Z,5.82
2022-11-21T05:48:43.571Z,5.85
2022-11-21T05:51:11.770Z,5.63
2022-11-21T05:53:39.266Z,5.70
2022-11-21T05:56:09.321Z,5.63
2022-11-21T05:58:36.827Z,5.90
2022-11-21T06:01:05.272Z,5.45
2022-11-21T06:03:35.919Z,5.18
2022-11-21T06:06:10.787Z,5.10
2022-11-21T06:08:43.979Z,5.32
2022-11-21T06:11:13.962Z,5.32
2022-11-21T06:13:42.110Z,5.35
2022-11-21T06:16:11.997Z,5.32
2022-11-21T06:18:41.569Z,5.20
2022-11-21T06:21:20.760Z,5.80
2022-11-21T06:23:51.908Z,5.22
2022-11-21T06:26:21.799Z,5.03
2022-11-21T06:28:49.844Z,5.40
2022-11-21T06:31:22.710Z,5.05
2022-11-21T06:33:55.402Z,4.93
2022-11-21T06:36:23.253Z,6.20
2022-11-21T06:38:52.805Z,5.70
2022-11-21T06:41:23.608Z,6.40
2022-11-21T06:43:51.537Z,6.30
2022-11-21T06:46:19.303Z,6.75
2022-11-21T06:48:47.355Z,6.20
2022-11-21T06:51:22.716Z,5.55
2022-11-21T06:53:58.118Z,5.80
2022-11-21T06:56:27.527Z,6.22
2022-11-21T06:58:55.856Z,5.65
2022-11-21T07:01:24.569Z,6.57
2022-11-21T07:03:53.151Z,6.38
2022-11-21T07:06:20.918Z,7.00
2022-11-21T07:09:00.066Z,7.65
2022-11-21T07:11:35.892Z,7.50
2022-11-21T07:14:08.862Z,8.05
2022-11-21T07:16:36.850Z,7.25
2022-11-21T07:19:04.466Z,7.25
2022-11-21T07:21:31.900Z,7.03
2022-11-21T07:23:59.920Z,7.22
2022-11-21T07:26:27.328Z,7.35
2022-11-21T07:28:54.837Z,6.63
2022-11-21T07:31:22.318Z,7.13
2022-11-21T07:33:49.777Z,6.80
2022-11-21T07:36:17.183Z,6.78
2022-11-21T07:38:46.571Z,7.18
2022-11-21T07:41:14.025Z,6.55
2022-11-21T07:43:41.559Z,7.03
2022-11-21T07:46:09.145Z,6.63
2022-11-21T07:48:36.622Z,6.70
2022-11-21T07:51:05.325Z,6.20
2022-11-21T07:53:33.047Z,6.85
2022-11-21T07:56:00.839Z,6.30
2022-11-21T07:58:28.411Z,6.63
2022-11-21T08:00:56.110Z,6.32
2022-11-21T08:03:25.322Z,6.88
2022-11-21T08:05:52.761Z,6.50
2022-11-21T08:08:20.198Z,6.38
2022-11-21T08:10:47.911Z,6.30
2022-11-21T08:13:15.332Z,6.30
2022-11-21T08:15:42.889Z,6.70
2022-11-21T08:18:15.863Z,6.40
2022-11-21T08:20:43.265Z,6.97
2022-11-21T08:23:11.063Z,6.20
2022-11-21T08:25:39.829Z,6.47
2022-11-21T08:28:09.989Z,6.40
2022-11-21T08:30:38.208Z,6.65
2022-11-21T08:33:06.747Z,6.35
2022-11-21T08:35:38.085Z,5.95
2022-11-21T08:38:06.470Z,6.20
2022-11-21T08:40:35.146Z,6.85
2022-11-21T08:43:08.340Z,6.25
2022-11-21T08:45:37.687Z,6.65
2022-11-21T08:48:09.648Z,6.50
2022-11-21T08:50:37.071Z,6.40
2022-11-21T08:53:04.532Z,5.78
2022-11-21T08:55:32.063Z,6.30
2022-11-21T08:57:59.572Z,6.38
2022-11-21T09:00:27.246Z,6.28
2022-11-21T09:02:54.771Z,5.78
2022-11-21T09:05:22.289Z,5.60
2022-11-21T09:07:57.284Z,5.80
2022-11-21T09:10:25.982Z,6.22
2022-11-21T09:12:53.634Z,5.90
2022-11-21T09:15:39.617Z,5.85
2022-11-21T09:18:08.162Z,5.70
2022-11-21T09:20:40.997Z,5.32
2022-11-21T09:23:10.902Z,5.40
2022-11-21T09:25:38.644Z,5.13
2022-11-21T09:28:08.786Z,5.10
2022-11-21T09:30:36.983Z,5.10
2022-11-21T09:33:07.263Z,5.15
2022-11-21T09:35:34.859Z,4.88
2022-11-21T09:38:02.457Z,4.95
2022-11-21T09:40:31.401Z,4.70
2022-11-21T09:43:07.699Z,4.82
2022-11-21T09:45:45.888Z,4.40
2022-11-21T09:48:19.309Z,4.63
2022-11-21T09:50:53.983Z,4.80
2022-11-21T09:53:36.373Z,4.55
2022-11-21T09:56:13.989Z,4.35
2022-11-21T09:58:59.697Z,4.30
2022-11-21T10:01:29.347Z,3.67
2022-11-21T10:03:56.915Z,4.20
2022-11-21T10:06:31.926Z,4.32
2022-11-21T10:09:23.702Z,4.07
2022-11-21T10:12:12.668Z,4.22
2022-11-21T10:15:22.002Z,3.97
2022-11-21T10:18:24.706Z,3.90
2022-11-21T10:21:24.304Z,4.10
2022-11-21T10:23:57.436Z,3.80
2022-11-21T10:26:54.706Z,3.60
2022-11-21T10:29:29.015Z,3.78
2022-11-21T10:32:01.674Z,3.95
2022-11-21T10:34:37.838Z,3.60
2022-11-21T10:37:15.576Z,3.28
2022-11-21T10:39:50.334Z,3.50
2022-11-21T10:42:34.903Z,4.05
2022-11-21T10:45:22.941Z,3.33
2022-11-21T10:47:52.293Z,3.60
2022-11-21T10:50:26.152Z,3.78
2022-11-21T10:53:02.816Z,4.65
2022-11-21T10:55:30.381Z,6.38
2022-11-21T10:57:57.778Z,5.45
2022-11-21T11:00:26.936Z,5.93
2022-11-21T11:03:06.474Z,6.47
2022-11-21T11:05:37.143Z,5.90
2022-11-21T11:08:13.091Z,4.85
2022-11-21T11:11:04.899Z,5.40
2022-11-21T11:13:51.712Z,5.25
2022-11-21T11:16:22.400Z,5.05
2022-11-21T11:19:02.040Z,4.72
2022-11-21T11:21:50.841Z,5.05
2022-11-21T11:24:20.295Z,5.07
2022-11-21T11:26:48.713Z,4.60
2022-11-21T11:29:25.057Z,4.65
2022-11-21T11:31:55.352Z,4.77
2022-11-21T11:34:30.709Z,4.65
2022-11-21T11:37:25.960Z,4.18
2022-11-21T11:40:21.186Z,4.25
2022-11-21T11:43:35.467Z,4.25
2022-11-21T11:46:40.381Z,4.28
2022-11-21T11:49:20.758Z,4.18
2022-11-21T11:51:54.146Z,4.10
2022-11-21T11:54:34.464Z,3.55
2022-11-21T11:57:04.605Z,4.05
2022-11-21T11:59:38.981Z,3.95
2022-11-21T12:02:12.319Z,3.92
2022-11-21T12:04:51.023Z,3.97
2022-11-21T12:10:27.650Z,3.97
2022-11-21T12:13:14.105Z,4.00
2022-11-21T12:15:51.245Z,4.63
2022-11-21T12:18:18.615Z,4.07
2022-11-21T12:21:24.469Z,4.03
2022-11-21T12:23:59.000Z,4.00
2022-11-21T12:26:29.441Z,3.90
2022-11-21T12:29:34.924Z,3.92
2022-11-21T12:32:49.095Z,3.60
2022-11-21T12:35:35.440Z,3.60
2022-11-21T12:38:39.470Z,3.60
2022-11-21T12:41:35.450Z,3.33
2022-11-21T12:44:35.685Z,3.88
2022-11-21T12:47:57.024Z,3.47
2022-11-21T12:50:52.295Z,3.58
2022-11-21T12:53:55.073Z,3.67
2022-11-21T12:56:49.753Z,3.15
2022-11-21T12:59:19.655Z,3.20
2022-11-21T13:01:52.953Z,3.40
2022-11-21T13:04:28.985Z,3.72
2022-11-21T13:06:57.891Z,3.17
2022-11-21T13:09:28.297Z,3.17
2022-11-21T13:12:16.151Z,3.42
2022-11-21T13:14:58.543Z,3.00
2022-11-21T13:17:25.970Z,3.30
2022-11-21T13:19:56.535Z,3.00
2022-11-21T13:22:36.091Z,2.95
2022-11-21T13:25:24.888Z,2.95
2022-11-21T13:27:52.723Z,2.60
2022-11-21T13:30:22.571Z,2.85
2022-11-21T13:32:52.214Z,2.88
2022-11-21T13:35:19.659Z,2.65
2022-11-21T13:37:49.928Z,3.00
2022-11-21T13:40:26.375Z,3.00
2022-11-21T13:45:59.216Z,2.80
2022-11-21T13:48:36.404Z,2.95
2022-11-21T13:51:25.705Z,2.70
2022-11-21T13:54:27.317Z,3.03
2022-11-21T13:57:27.478Z,2.70
2022-11-21T14:00:20.484Z,3.10
2022-11-21T14:03:12.027Z,2.85
2022-11-21T14:06:13.810Z,2.85
2022-11-21T14:08:41.308Z,2.72
2022-11-21T14:11:30.509Z,2.80
2022-11-21T14:13:58.217Z,2.45
2022-11-21T14:16:56.967Z,2.70
2022-11-21T14:19:27.407Z,2.50
2022-11-21T14:21:55.474Z,2.70
2022-11-21T14:24:23.349Z,2.50
2022-11-21T14:26:52.852Z,2.70
2022-11-21T14:29:39.551Z,2.30
2022-11-21T14:32:14.619Z,2.63
2022-11-21T14:34:42.258Z,2.30
2022-11-21T14:37:13.616Z,2.70
2022-11-21T14:39:44.833Z,2.42
2022-11-21T14:42:15.675Z,2.45
2022-11-21T14:44:43.716Z,2.13
2022-11-21T14:47:23.486Z,2.40
2022-11-21T14:49:55.688Z,2.50
2022-11-21T14:52:32.893Z,2.70
2022-11-21T14:57:52.232Z,2.45
2022-11-21T15:03:23.885Z,2.40
2022-11-21T15:06:04.434Z,2.45
2022-11-21T15:11:26.124Z,2.55
2022-11-21T15:14:17.830Z,2.22
2022-11-21T15:16:47.983Z,2.35
2022-11-21T15:19:27.785Z,2.30
2022-11-21T15:21:58.296Z,2.75
2022-11-21T15:24:35.914Z,2.17
2022-11-21T15:27:28.873Z,2.20
2022-11-21T15:30:03.376Z,2.00
2022-11-21T15:32:31.092Z,2.30
2022-11-21T15:34:58.609Z,2.63
2022-11-21T15:37:27.897Z,2.53
2022-11-21T15:39:55.400Z,2.50
2022-11-21T15:42:31.898Z,2.60
2022-11-21T15:45:04.704Z,3.10
2022-11-21T15:47:32.225Z,2.72
2022-11-21T15:49:59.996Z,2.90
2022-11-21T15:52:29.436Z,3.33
2022-11-21T15:54:56.839Z,3.33
2022-11-21T15:57:24.295Z,3.28
2022-11-21T15:59:53.112Z,3.10
2022-11-21T16:02:20.713Z,3.30
2022-11-21T16:04:49.418Z,3.75
2022-11-21T16:07:17.046Z,3.60
2022-11-21T16:09:45.953Z,3.85
2022-11-21T16:12:13.384Z,4.05
2022-11-21T16:14:40.905Z,4.97
2022-11-21T16:17:08.476Z,5.10
2022-11-21T16:19:35.975Z,5.05
2022-11-21T16:22:03.432Z,5.80
2022-11-21T16:24:30.864Z,6.00
2022-11-21T16:26:58.359Z,6.25
2022-11-21T16:29:25.821Z,5.90
2022-11-21T16:31:55.840Z,5.93
2022-11-21T16:34:23.334Z,6.57
2022-11-21T16:36:51.029Z,6.32
2022-11-21T16:39:18.766Z,6.45
2022-11-21T16:41:47.451Z,6.40
2022-11-21T16:44:16.180Z,6.05
2022-11-21T16:46:47.213Z,6.43
2022-11-21T16:49:15.276Z,6.82
2022-11-21T16:51:42.799Z,6.68
2022-11-21T16:54:10.215Z,6.95
2022-11-21T16:56:37.629Z,7.13
2022-11-21T16:59:05.083Z,7.20
2022-11-21T17:01:32.589Z,7.15
2022-11-21T17:04:00.136Z,7.50
2022-11-21T17:06:30.035Z,7.03
2022-11-21T17:09:01.013Z,7.60
2022-11-21T17:11:31.259Z,7.95
2022-11-21T17:14:01.821Z,8.00
2022-11-21T17:16:29.961Z,8.20
2022-11-21T17:18:59.728Z,7.90
2022-11-21T17:21:28.372Z,7.88
2022-11-21T17:23:56.239Z,7.88
2022-11-21T17:26:25.957Z,8.30
2022-11-21T17:28:55.369Z,7.78
2022-11-21T17:31:23.285Z,7.72
2022-11-21T17:33:51.883Z,7.68
2022-11-21T17:36:21.229Z,7.32
2022-11-21T17:38:49.146Z,7.43
2022-11-21T17:41:18.783Z,7.85
2022-11-21T17:43:47.304Z,7.80
2022-11-21T17:46:19.122Z,7.22
2022-11-21T17:48:54.659Z,7.95
2022-11-21T17:51:26.235Z,6.97
2022-11-21T17:53:54.154Z,7.18
2022-11-21T17:56:26.864Z,7.22
2022-11-21T17:58:55.110Z,6.80
2022-11-21T18:01:23.131Z,7.00
2022-11-21T18:03:54.715Z,7.45
2022-11-21T18:06:22.675Z,7.28
2022-11-21T18:08:50.160Z,7.25
2022-11-21T18:11:23.701Z,7.18
2022-11-21T18:13:51.212Z,6.90
2022-11-21T18:16:22.199Z,6.80
2022-11-21T18:18:50.701Z,7.22
2022-11-21T18:21:19.448Z,7.40
2022-11-21T18:23:47.301Z,7.30
2022-11-21T18:26:19.956Z,6.57
2022-11-21T18:28:57.254Z,7.32
2022-11-21T18:31:37.499Z,6.90
2022-11-21T18:34:06.589Z,6.65
2022-11-21T18:36:34.069Z,7.07
2022-11-21T18:39:08.952Z,7.55
2022-11-21T18:41:41.126Z,7.75
2022-11-21T18:44:08.682Z,7.75
2022-11-21T18:46:37.264Z,7.53
2022-11-21T18:49:07.326Z,7.45
2022-11-21T18:51:36.415Z,7.40
2022-11-21T18:54:11.854Z,7.10
2022-11-21T18:56:39.800Z,7.85
2022-11-21T18:59:07.859Z,7.28
2022-11-21T19:01:37.594Z,7.68
2022-11-21T19:04:05.673Z,7.72
2022-11-21T19:06:33.398Z,7.95
2022-11-21T19:09:00.814Z,7.35
2022-11-21T19:11:29.697Z,7.18
2022-11-21T19:13:59.397Z,7.22
2022-11-21T19:16:28.570Z,7.05
2022-11-21T19:21:43.996Z,7.70
2022-11-21T19:24:19.422Z,7.07
2022-11-21T19:26:47.167Z,7.40
2022-11-21T19:29:14.549Z,7.28
2022-11-21T19:31:45.772Z,7.80
2022-11-21T19:34:14.977Z,7.65
2022-11-21T19:36:42.883Z,7.57
2022-11-21T19:39:11.042Z,8.40
2022-11-21T19:41:38.642Z,7.70
2022-11-21T19:44:06.229Z,7.95
2022-11-21T19:46:36.765Z,8.23
2022-11-21T19:49:05.701Z,7.97
2022-11-21T19:51:39.108Z,8.65
2022-11-21T19:54:07.690Z,8.68
2022-11-21T19:56:36.138Z,9.00
2022-11-21T19:59:04.294Z,8.90
2022-11-21T20:01:33.881Z,8.20
2022-11-21T20:04:03.510Z,8.95
2022-11-21T20:06:32.097Z,9.45
2022-11-21T20:09:06.877Z,9.10
2022-11-21T20:11:35.258Z,10.93
2022-11-21T20:14:03.090Z,10.00
2022-11-21T20:16:35.500Z,10.25
2022-11-21T20:19:07.047Z,10.15
2022-11-21T20:21:35.017Z,9.82
2022-11-21T20:24:03.647Z,10.10
2022-11-21T20:26:31.905Z,10.48
2022-11-21T20:28:59.669Z,10.85
2022-11-21T20:31:32.564Z,10.13
2022-11-21T20:34:02.829Z,10.90
2022-11-21T20:36:32.974Z,10.45
2022-11-21T20:39:31.773Z,11.07
2022-11-21T20:41:59.868Z,10.48
2022-11-21T20:45:11.643Z,11.35
2022-11-21T20:49:44.040Z,11.25
2022-11-21T20:57:27.639Z,11.20
2022-11-21T20:59:55.082Z,12.35
2022-11-21T21:02:22.499Z,11.57
2022-11-21T21:04:49.959Z,11.25
2022-11-21T21:07:17.527Z,11.10
2022-11-21T21:09:45.049Z,12.95
2022-11-21T21:12:12.507Z,11.80
2022-11-21T21:14:39.923Z,12.00
2022-11-21T21:17:07.405Z,12.45
2022-11-21T21:19:34.949Z,12.15
2022-11-21T21:22:02.378Z,12.95
2022-11-21T21:24:29.829Z,12.88
2022-11-21T21:26:57.312Z,12.45
2022-11-21T21:29:24.843Z,12.35
2022-11-21T21:31:53.056Z,13.00
2022-11-21T21:34:21.776Z,13.45
2022-11-21T21:36:49.889Z,13.60
2022-11-21T21:39:17.520Z,13.30
2022-11-21T21:41:46.706Z,13.70
2022-11-21T21:44:15.779Z,14.02
2022-11-21T21:46:43.935Z,13.80
2022-11-21T21:49:11.767Z,15.15
2022-11-21T21:51:40.010Z,15.18
2022-11-21T21:54:07.659Z,14.40
2022-11-21T21:56:35.110Z,14.75
2022-11-21T21:59:02.600Z,14.48
2022-11-21T22:01:32.227Z,13.32
2022-11-21T22:04:04.878Z,14.50
2022-11-21T22:06:36.049Z,14.48
2022-11-21T22:09:03.959Z,14.00
2022-11-21T22:11:35.535Z,15.10
2022-11-21T22:14:05.545Z,15.32
2022-11-21T22:16:33.359Z,15.73
2022-11-21T22:19:01.049Z,16.45
2022-11-21T22:21:32.611Z,15.73
2022-11-21T22:26:53.330Z,16.50
2022-11-21T22:29:20.790Z,17.25
2022-11-21T22:31:48.318Z,17.95
2022-11-21T22:34:15.917Z,17.38
2022-11-21T22:36:44.689Z,18.55
2022-11-21T22:39:12.153Z,18.25
2022-11-21T22:41:39.751Z,18.90
2022-11-21T22:44:07.164Z,18.20
2022-11-21T22:46:35.162Z,19.17
2022-11-21T22:49:03.618Z,17.88
2022-11-21T22:51:31.035Z,18.38
2022-11-21T22:53:58.505Z,19.58
2022-11-21T22:56:26.592Z,18.83
2022-11-21T22:58:54.362Z,20.27
2022-11-21T23:01:24.839Z,19.35
2022-11-21T23:03:53.108Z,20.50
2022-11-21T23:06:23.642Z,19.80
2022-11-21T23:08:52.840Z,19.45
2022-11-21T23:11:23.181Z,20.08
2022-11-21T23:13:51.952Z,19.58
2022-11-21T23:16:19.802Z,19.27
2022-11-21T23:18:47.809Z,22.50
2022-11-21T23:21:15.382Z,20.27
2022-11-21T23:23:44.002Z,21.73
2022-11-21T23:26:11.840Z,21.77
2022-11-21T23:28:39.288Z,22.08
2022-11-21T23:31:06.730Z,21.40
2022-11-21T23:33:34.262Z,23.00
2022-11-21T23:36:01.819Z,23.23
2022-11-21T23:38:29.271Z,23.67
2022-11-21T23:40:56.731Z,22.92
2022-11-21T23:43:24.779Z,21.67
2022-11-21T23:45:53.631Z,21.75
2022-11-21T23:48:21.820Z,22.30
2022-11-21T23:50:51.313Z,23.27
2022-11-21T23:53:22.445Z,24.35
2022-11-21T23:55:50.136Z,23.95
2022-11-21T23:58:17.764Z,23.35
